Terminal Aerodrome Forecast
Issued by NWS

Home | Current Version | Previous Version | Text Only | Print | Product List | Glossary On
Versions: 1 2 3 4 5 6 7 8 9 10 11 12 13 14 15 16 17 18 19 20 21 22 23 24 25 26 27
156
FTUS41 KBUF 221740
TAFJHW
TAF
KJHW 221740Z 2218/2318 24015G26KT P6SM VCTS OVC025CB
      TEMPO 2218/2222 VRB20G40KT 2SM -TSRA BKN030CB
     FM222300 25015KT 6SM -SHRA VCTS OVC015CB
     FM230300 29011KT P6SM BKN012
     FM230500 30008KT P6SM BKN250
     FM231500 28010G16KT P6SM SCT250
      AMD LTD TO CLD VIS AND WIND=

USA.gov is the U.S. government's official web portal to all federal, state and local government web resources and services.